createdAt,value
2023-04-07T00:02:22.470Z,7.80
2023-04-07T00:07:24.420Z,7.80
2023-04-07T00:12:26.335Z,7.90
2023-04-07T00:17:29.027Z,7.80
2023-04-07T00:22:30.738Z,7.80
2023-04-07T00:27:33.382Z,7.80
2023-04-07T00:32:36.026Z,7.90
2023-04-07T00:37:40.384Z,7.90
2023-04-07T00:42:42.166Z,7.90
2023-04-07T00:47:44.138Z,7.90
2023-04-07T00:52:46.319Z,7.90
2023-04-07T00:57:48.008Z,7.90
2023-04-07T01:02:58.898Z,7.90
2023-04-07T01:08:03.860Z,7.90
2023-04-07T01:13:05.723Z,7.90
2023-04-07T01:18:11.131Z,7.80
2023-04-07T01:23:17.611Z,7.90
2023-04-07T01:28:39.204Z,7.90
2023-04-07T01:33:42.927Z,7.90
2023-04-07T01:38:45.597Z,7.90
2023-04-07T01:43:48.763Z,7.90
2023-04-07T01:48:51.635Z,7.90
2023-04-07T01:53:54.159Z,7.90
2023-04-07T01:58:56.016Z,7.90
2023-04-07T02:04:17.944Z,7.80
2023-04-07T02:09:21.450Z,7.70
2023-04-07T02:14:24.454Z,7.80
2023-04-07T02:19:27.331Z,7.80
2023-04-07T02:24:30.093Z,7.90
2023-04-07T02:29:31.713Z,7.90
2023-04-07T02:34:35.996Z,7.90
2023-04-07T02:39:40.919Z,8.00
2023-04-07T02:44:42.585Z,8.00
2023-04-07T02:49:44.177Z,8.00
2023-04-07T02:54:46.278Z,8.10
2023-04-07T02:59:47.997Z,8.10
2023-04-07T03:04:50.878Z,8.10
2023-04-07T03:09:52.459Z,8.10
2023-04-07T03:14:54.035Z,8.10
2023-04-07T03:19:55.713Z,8.10
2023-04-07T03:24:57.399Z,8.20
2023-04-07T03:29:59.156Z,8.20
2023-04-07T03:35:00.890Z,8.30
2023-04-07T03:40:02.658Z,8.30
2023-04-07T03:45:04.636Z,8.30
2023-04-07T03:50:06.806Z,8.30
2023-04-07T03:55:08.716Z,8.40
2023-04-07T04:00:10.748Z,8.40
2023-04-07T04:05:12.447Z,8.40
2023-04-07T04:10:14.155Z,8.50
2023-04-07T04:15:16.063Z,8.40
2023-04-07T04:20:17.790Z,8.50
2023-04-07T04:25:19.917Z,8.50
2023-04-07T04:30:21.509Z,8.50
2023-04-07T04:35:23.172Z,8.50
2023-04-07T04:40:24.723Z,8.40
2023-04-07T04:45:26.575Z,8.40
2023-04-07T04:50:28.284Z,8.40
2023-04-07T04:55:29.879Z,8.40
2023-04-07T05:00:31.654Z,8.40
2023-04-07T05:05:33.332Z,8.40
2023-04-07T05:10:38.118Z,8.40
2023-04-07T05:15:41.218Z,8.30
2023-04-07T05:20:43.883Z,8.30
2023-04-07T05:25:45.685Z,8.20
2023-04-07T05:30:47.833Z,8.30
2023-04-07T05:35:50.490Z,8.30
2023-04-07T05:40:52.117Z,8.30
2023-04-07T05:45:53.884Z,8.20
2023-04-07T05:50:55.646Z,8.20
2023-04-07T05:55:57.294Z,8.20
2023-04-07T06:00:59.091Z,8.10
2023-04-07T06:06:00.805Z,8.10
2023-04-07T06:11:02.485Z,8.00
2023-04-07T06:16:04.768Z,8.00
2023-04-07T06:21:06.452Z,8.00
2023-04-07T06:26:12.177Z,8.00
2023-04-07T06:31:13.935Z,8.00
2023-04-07T06:36:15.726Z,8.00
2023-04-07T06:41:17.387Z,7.90
2023-04-07T06:46:19.475Z,7.90
2023-04-07T06:51:21.412Z,8.00
2023-04-07T06:56:23.209Z,8.00
2023-04-07T07:01:24.934Z,8.00
2023-04-07T07:06:27.454Z,8.10
2023-04-07T07:11:29.134Z,8.00
2023-04-07T07:16:30.759Z,8.10
2023-04-07T07:21:32.410Z,8.00
2023-04-07T07:26:34.070Z,8.00
2023-04-07T07:31:35.895Z,8.00
2023-04-07T07:36:37.601Z,8.00
2023-04-07T07:41:39.270Z,8.00
2023-04-07T07:46:41.161Z,8.10
2023-04-07T07:51:42.903Z,8.10
2023-04-07T07:56:44.651Z,8.10
2023-04-07T08:01:46.329Z,8.10
2023-04-07T08:06:48.032Z,8.10
2023-04-07T08:11:49.920Z,8.10
2023-04-07T08:16:51.638Z,8.20
2023-04-07T08:21:53.402Z,8.20
2023-04-07T08:26:56.001Z,8.20
2023-04-07T08:31:57.718Z,8.20
2023-04-07T08:36:59.386Z,8.20
2023-04-07T08:42:01.058Z,8.10
2023-04-07T08:47:04.123Z,8.20
2023-04-07T08:52:07.880Z,8.20
2023-04-07T08:57:11.696Z,8.20
2023-04-07T09:02:14.238Z,8.20
2023-04-07T09:07:16.215Z,8.20
2023-04-07T09:12:17.845Z,8.30
2023-04-07T09:17:19.604Z,8.30
2023-04-07T09:22:36.845Z,8.40
2023-04-07T09:27:38.482Z,8.40
2023-04-07T09:32:41.442Z,8.40
2023-04-07T09:37:43.617Z,8.40
2023-04-07T09:42:46.323Z,8.50
2023-04-07T09:47:48.020Z,8.50
2023-04-07T09:52:52.832Z,8.50
2023-04-07T09:57:56.034Z,8.50
2023-04-07T10:02:58.228Z,8.70
2023-04-07T10:08:01.150Z,8.60
2023-04-07T10:13:04.948Z,8.70
2023-04-07T10:18:08.955Z,8.70
2023-04-07T10:23:17.042Z,8.70
2023-04-07T10:28:21.343Z,8.80
2023-04-07T10:34:05.487Z,8.90
2023-04-07T10:39:08.660Z,8.90
2023-04-07T10:44:31.398Z,8.80
2023-04-07T10:49:34.991Z,8.90
2023-04-07T10:54:38.111Z,8.80
2023-04-07T10:59:46.943Z,8.80
2023-04-07T11:04:48.707Z,8.80
2023-04-07T11:09:51.540Z,8.80
2023-04-07T11:14:54.292Z,8.80
2023-04-07T11:19:57.559Z,8.80
2023-04-07T11:25:00.273Z,8.90
2023-04-07T11:30:08.260Z,9.10
2023-04-07T11:35:10.485Z,9.20
2023-04-07T11:40:16.880Z,9.30
2023-04-07T11:45:20.700Z,9.50
2023-04-07T11:50:41.227Z,9.50
2023-04-07T11:55:43.197Z,9.50
2023-04-07T12:00:56.042Z,9.40
2023-04-07T12:06:00.288Z,9.40
2023-04-07T12:11:05.695Z,9.30
2023-04-07T12:16:07.578Z,9.40
2023-04-07T12:21:09.381Z,9.40
2023-04-07T12:26:12.065Z,9.40
2023-04-07T12:31:13.819Z,9.40
2023-04-07T12:36:16.980Z,9.30
2023-04-07T12:41:18.720Z,9.40
2023-04-07T12:46:22.568Z,9.60
2023-04-07T12:51:24.316Z,9.50
2023-04-07T12:56:26.106Z,9.50
2023-04-07T13:01:27.990Z,9.60
2023-04-07T13:06:31.686Z,9.80
2023-04-07T13:11:33.466Z,10.00
2023-04-07T13:16:36.166Z,10.10
2023-04-07T13:26:42.637Z,10.20
2023-04-07T13:31:47.646Z,10.20
2023-04-07T13:36:50.304Z,10.10
2023-04-07T13:41:51.906Z,10.00
2023-04-07T13:46:53.870Z,10.40
2023-04-07T13:51:55.564Z,10.40
2023-04-07T13:56:57.470Z,10.50
2023-04-07T14:01:59.324Z,10.60
2023-04-07T14:07:01.098Z,10.40
2023-04-07T14:12:02.686Z,10.50
2023-04-07T14:17:05.298Z,10.30
2023-04-07T14:22:09.086Z,10.00
2023-04-07T14:27:20.949Z,10.20
2023-04-07T14:32:29.794Z,10.20
2023-04-07T14:37:32.721Z,10.20
2023-04-07T14:42:36.884Z,10.10
2023-04-07T14:47:50.158Z,10.20
2023-04-07T14:53:02.463Z,10.30
2023-04-07T14:58:16.753Z,10.20
2023-04-07T15:03:53.323Z,10.50
2023-04-07T15:09:03.301Z,10.50
2023-04-07T15:20:12.964Z,10.10
2023-04-07T15:25:24.294Z,10.00
2023-04-07T15:30:37.392Z,9.90
2023-04-07T15:35:47.406Z,9.80
2023-04-07T15:40:49.134Z,9.90
2023-04-07T15:45:51.850Z,9.80
2023-04-07T15:50:54.568Z,9.90
2023-04-07T15:55:56.311Z,9.90
2023-04-07T16:00:58.693Z,9.90
2023-04-07T16:06:00.539Z,9.90
2023-04-07T16:11:03.283Z,9.80
2023-04-07T16:16:05.169Z,9.80
2023-04-07T16:21:11.091Z,9.60
2023-04-07T16:26:12.749Z,9.60
2023-04-07T16:31:14.752Z,9.60
2023-04-07T16:36:16.798Z,9.50
2023-04-07T16:41:18.546Z,9.50
2023-04-07T16:46:26.125Z,9.50
2023-04-07T16:51:29.586Z,9.40
2023-04-07T16:56:31.611Z,9.40
2023-04-07T17:01:33.348Z,9.40
2023-04-07T17:06:35.020Z,9.40
2023-04-07T17:11:36.749Z,9.40
2023-04-07T17:16:38.421Z,9.40
2023-04-07T17:21:40.024Z,9.40
2023-04-07T17:26:42.321Z,9.30
2023-04-07T17:31:44.141Z,9.40
2023-04-07T17:36:45.951Z,9.40
2023-04-07T17:41:47.888Z,9.40
2023-04-07T17:46:50.906Z,9.40
2023-04-07T17:51:52.641Z,9.40
2023-04-07T17:56:54.359Z,9.40
2023-04-07T18:01:56.151Z,9.40
2023-04-07T18:06:57.886Z,9.40
2023-04-07T18:12:01.220Z,9.40
2023-04-07T18:17:02.860Z,9.40
2023-04-07T18:22:04.601Z,9.40
2023-04-07T18:27:06.211Z,9.40
2023-04-07T18:32:08.011Z,9.40
2023-04-07T18:37:09.678Z,9.40
2023-04-07T18:42:14.429Z,9.40
2023-04-07T18:47:16.122Z,9.40
2023-04-07T18:52:17.803Z,9.40
2023-04-07T18:57:19.435Z,9.30
2023-04-07T19:02:21.402Z,9.30
2023-04-07T19:07:23.147Z,9.30
2023-04-07T19:12:24.858Z,9.30
2023-04-07T19:17:26.672Z,9.30
2023-04-07T19:22:28.340Z,9.30
2023-04-07T19:27:29.971Z,9.20
2023-04-07T19:32:31.714Z,9.20
2023-04-07T19:37:33.387Z,9.30
2023-04-07T19:42:35.605Z,9.20
2023-04-07T19:47:37.922Z,9.20
2023-04-07T19:52:50.428Z,9.20
2023-04-07T19:57:58.383Z,9.20
2023-04-07T20:03:13.831Z,9.20
2023-04-07T20:08:16.674Z,9.20
2023-04-07T20:13:22.140Z,9.20
2023-04-07T20:18:36.404Z,9.10
2023-04-07T20:23:42.621Z,9.10
2023-04-07T20:28:44.445Z,9.10
2023-04-07T20:33:46.369Z,9.10
2023-04-07T20:38:48.534Z,9.10
2023-04-07T20:43:51.519Z,9.10
2023-04-07T20:48:53.532Z,9.10
2023-04-07T20:53:55.193Z,9.10
2023-04-07T20:58:57.824Z,9.10
2023-04-07T21:04:02.308Z,9.00
2023-04-07T21:09:05.694Z,9.00
2023-04-07T21:14:07.797Z,9.00
2023-04-07T21:19:09.441Z,9.00
2023-04-07T21:24:11.071Z,9.00
2023-04-07T21:29:12.699Z,9.00
2023-04-07T21:34:14.304Z,8.90
2023-04-07T21:39:15.936Z,8.90
2023-04-07T21:44:20.004Z,8.90
2023-04-07T21:49:22.397Z,8.90
2023-04-07T21:54:25.046Z,8.90
2023-04-07T21:59:27.717Z,8.90
2023-04-07T22:04:29.762Z,8.90
2023-04-07T22:09:31.541Z,8.90
2023-04-07T22:14:33.142Z,8.90
2023-04-07T22:19:39.264Z,8.90
2023-04-07T22:24:41.025Z,8.80
2023-04-07T22:29:42.595Z,8.90
2023-04-07T22:34:44.660Z,8.80
2023-04-07T22:39:46.874Z,8.80
2023-04-07T22:44:48.565Z,8.80
2023-04-07T22:49:50.863Z,8.80
2023-04-07T22:54:52.569Z,8.80
2023-04-07T22:59:54.359Z,8.80
2023-04-07T23:04:56.020Z,8.80
2023-04-07T23:09:57.859Z,8.80
2023-04-07T23:14:59.567Z,8.80
2023-04-07T23:20:01.313Z,8.80
2023-04-07T23:25:03.097Z,8.80
2023-04-07T23:30:04.966Z,8.80
2023-04-07T23:35:07.037Z,8.80
2023-04-07T23:40:09.553Z,8.80
2023-04-07T23:45:11.318Z,8.80
2023-04-07T23:50:13.016Z,8.70
2023-04-07T23:55:14.727Z,8.70
